Time;durP1;ratioP1;P1;durP2;ratioP2;P2;SDS_P1;SDS_P2;PMS_P1;PMS_P2;Temp;Humidity;BMP_temperature;BMP_pressure;BME280_temperature;BME280_humidity;BME280_pressure;Samples;Min_cycle;Max_cycle;Signal;HPM_P1;HPM_P2
2022/10/01 00:01:07;;;;;;;4.63;2.28;;;11.20;99.90;;;;;;5072642;28;20055;-73
2022/10/01 00:03:34;;;;;;;3.05;2.40;;;11.20;99.90;;;;;;5054387;28;20123;-71
2022/10/01 00:06:02;;;;;;;4.97;2.28;;;11.20;99.90;;;;;;5072607;28;20495;-73
2022/10/01 00:08:29;;;;;;;5.45;3.13;;;11.40;99.90;;;;;;5072590;28;20090;-74
2022/10/01 00:10:55;;;;;;;3.88;2.63;;;11.10;99.90;;;;;;5072540;28;20067;-72
2022/10/01 00:13:21;;;;;;;6.82;3.30;;;11.10;99.90;;;;;;5072433;28;20045;-74
2022/10/01 00:15:47;;;;;;;4.45;2.90;;;11.00;99.90;;;;;;5071849;28;20052;-73
2022/10/01 00:18:12;;;;;;;5.28;2.90;;;11.00;99.90;;;;;;5072334;28;20101;-72
2022/10/01 00:20:42;;;;;;;3.63;2.65;;;11.10;99.90;;;;;;5054014;28;20045;-73
2022/10/01 00:23:08;;;;;;;6.78;3.03;;;11.00;99.90;;;;;;5054281;28;20052;-73
2022/10/01 00:25:35;;;;;;;3.70;2.60;;;11.00;99.90;;;;;;5053666;28;20051;-75
2022/10/01 00:28:01;;;;;;;3.53;2.65;;;11.00;99.90;;;;;;5071974;28;20045;-73
2022/10/01 00:30:27;;;;;;;4.43;3.00;;;11.00;99.90;;;;;;5072556;28;20040;-73
2022/10/01 00:32:53;;;;;;;3.83;2.58;;;10.90;99.90;;;;;;5072219;28;20032;-72
2022/10/01 00:35:22;;;;;;;4.03;2.97;;;10.90;99.90;;;;;;5072165;28;20049;-73
2022/10/01 00:37:50;;;;;;;7.35;2.65;;;10.90;99.90;;;;;;5072072;28;20110;-72
2022/10/01 00:40:18;;;;;;;3.38;2.67;;;10.90;99.90;;;;;;5072118;28;20499;-73
2022/10/01 00:42:44;;;;;;;4.32;3.00;;;10.80;99.90;;;;;;5072097;28;20124;-73
2022/10/01 00:45:11;;;;;;;5.47;3.35;;;10.80;99.90;;;;;;5053778;28;20043;-73
2022/10/01 00:47:45;;;;;;;3.05;2.50;;;10.90;99.90;;;;;;5053746;28;20056;-72
2022/10/01 00:50:15;;;;;;;4.72;3.40;;;10.80;99.90;;;;;;5053718;28;20478;-72
2022/10/01 00:52:44;;;;;;;4.60;3.03;;;10.80;99.90;;;;;;5053735;28;20048;-73
2022/10/01 00:55:17;;;;;;;6.03;3.60;;;10.80;99.90;;;;;;5071957;28;20123;-73
2022/10/01 00:57:44;;;;;;;4.45;3.25;;;10.80;99.90;;;;;;5053619;28;20052;-71
2022/10/01 01:00:13;;;;;;;6.68;3.35;;;10.80;99.90;;;;;;5053603;28;20080;-72
2022/10/01 01:02:39;;;;;;;4.10;3.10;;;10.80;99.90;;;;;;5053978;28;20385;-72
2022/10/01 01:05:07;;;;;;;4.20;3.00;;;10.80;99.90;;;;;;5071842;28;20037;-72
2022/10/01 01:07:35;;;;;;;6.10;3.75;;;10.80;99.90;;;;;;5071819;28;20055;-72
2022/10/01 01:10:03;;;;;;;3.95;2.58;;;10.80;99.90;;;;;;5053784;28;20080;-72
2022/10/01 01:12:37;;;;;;;4.70;2.67;;;10.70;99.90;;;;;;5071773;28;20041;-72
2022/10/01 01:15:40;;;;;;;4.80;2.83;;;10.80;99.90;;;;;;5071394;28;20059;-73
2022/10/01 01:18:08;;;;;;;4.45;3.15;;;10.80;99.90;;;;;;5071405;28;20040;-73
2022/10/01 01:20:49;;;;;;;7.65;3.05;;;10.80;99.90;;;;;;5071774;28;20387;-72
2022/10/01 01:23:15;;;;;;;5.57;3.50;;;10.80;99.90;;;;;;5071647;28;20072;-72
2022/10/01 01:25:54;;;;;;;3.80;2.75;;;10.70;99.90;;;;;;5070775;28;20083;-73
2022/10/01 01:28:24;;;;;;;5.50;3.28;;;10.70;99.90;;;;;;5071067;28;20075;-73
2022/10/01 01:30:54;;;;;;;5.78;3.40;;;10.70;99.90;;;;;;5053681;28;20418;-73
2022/10/01 01:33:23;;;;;;;5.82;3.42;;;10.70;99.90;;;;;;5053291;28;20040;-73
2022/10/01 01:35:51;;;;;;;4.15;2.70;;;10.70;99.90;;;;;;5071545;28;20041;-73
2022/10/01 01:38:23;;;;;;;3.88;3.15;;;10.80;99.90;;;;;;5056098;28;20138;-73
2022/10/01 01:40:54;;;;;;;5.07;3.70;;;10.70;99.90;;;;;;5075243;28;20045;-73
2022/10/01 01:43:25;;;;;;;4.93;3.00;;;10.70;99.90;;;;;;5074996;28;20040;-74
2022/10/01 01:45:54;;;;;;;4.75;3.80;;;10.70;99.90;;;;;;5075251;28;20044;-72
2022/10/01 01:48:25;;;;;;;4.18;3.25;;;10.60;99.90;;;;;;5057230;28;20091;-72
2022/10/01 01:50:56;;;;;;;6.57;3.42;;;10.70;99.90;;;;;;5075149;28;20044;-74
2022/10/01 01:53:22;;;;;;;5.57;3.85;;;11.40;99.90;;;;;;5057164;28;20490;-73
2022/10/01 01:55:49;;;;;;;7.20;3.67;;;10.60;99.90;;;;;;5074716;28;20267;-73
2022/10/01 01:58:17;;;;;;;5.40;3.67;;;10.60;99.90;;;;;;5057026;28;20443;-72
2022/10/01 02:00:43;;;;;;;5.20;3.28;;;10.60;99.90;;;;;;5075278;28;20468;-66
2022/10/01 02:03:10;;;;;;;4.50;2.80;;;10.60;99.90;;;;;;5074798;28;20037;-65
2022/10/01 02:05:45;;;;;;;5.22;3.05;;;10.60;99.90;;;;;;5040466;28;20044;-66
2022/10/01 02:08:39;;;;;;;5.03;3.35;;;11.60;99.90;;;;;;5056535;28;20123;-66
2022/10/01 02:11:24;;;;;;;4.00;2.78;;;10.60;99.90;;;;;;5074497;28;20040;-66
2022/10/01 02:14:02;;;;;;;4.68;3.45;;;10.60;99.90;;;;;;5074494;28;20040;-66
2022/10/01 02:17:10;;;;;;;4.60;2.78;;;10.60;99.90;;;;;;5056077;28;20052;-66
2022/10/01 02:19:48;;;;;;;4.60;3.17;;;10.60;99.90;;;;;;5053275;28;20098;-66
2022/10/01 02:22:39;;;;;;;5.80;3.03;;;10.60;99.90;;;;;;5056828;28;20038;-65
2022/10/01 02:25:06;;;;;;;4.15;2.97;;;10.60;99.90;;;;;;5074332;28;20029;-66
2022/10/01 02:27:51;;;;;;;5.10;3.17;;;10.60;99.90;;;;;;5074450;28;20087;-66
2022/10/01 02:30:18;;;;;;;4.78;3.15;;;10.60;99.90;;;;;;5056213;28;20052;-66
2022/10/01 02:32:48;;;;;;;4.75;2.95;;;10.60;99.90;;;;;;5056613;28;20488;-65
2022/10/01 02:35:18;;;;;;;4.35;2.78;;;10.60;99.90;;;;;;5074055;28;20040;-65
2022/10/01 02:37:46;;;;;;;3.80;2.53;;;10.50;99.90;;;;;;5074142;28;20047;-66
2022/10/01 02:40:16;;;;;;;4.80;2.72;;;10.60;99.90;;;;;;5074235;28;20652;-65
2022/10/01 02:42:46;;;;;;;3.70;2.42;;;10.60;99.90;;;;;;5074214;28;20024;-66
2022/10/01 02:45:14;;;;;;;4.77;2.60;;;10.60;99.90;;;;;;5055933;28;20048;-66
2022/10/01 02:47:47;;;;;;;5.13;2.92;;;10.60;99.90;;;;;;5055668;28;20354;-66
2022/10/01 02:50:14;;;;;;;3.58;2.55;;;10.60;99.90;;;;;;5073954;28;20048;-66
2022/10/01 02:53:08;;;;;;;3.90;2.40;;;10.60;99.90;;;;;;5055976;28;20084;-66
2022/10/01 02:55:40;;;;;;;3.40;2.35;;;10.60;99.90;;;;;;5073562;28;20075;-65
2022/10/01 02:58:07;;;;;;;4.35;2.70;;;10.70;99.90;;;;;;5073888;28;20447;-66
2022/10/01 03:00:32;;;;;;;5.95;2.40;;;10.70;99.90;;;;;;5073530;28;20522;-66
2022/10/01 03:02:58;;;;;;;2.92;2.38;;;10.70;99.90;;;;;;5073734;28;20040;-67
2022/10/01 03:05:24;;;;;;;3.65;2.25;;;10.60;99.90;;;;;;5055710;28;20036;-66
2022/10/01 03:07:50;;;;;;;4.18;2.60;;;10.70;99.90;;;;;;5073699;28;20033;-66
2022/10/01 03:10:16;;;;;;;3.33;2.65;;;10.70;99.90;;;;;;5073657;28;20045;-66
2022/10/01 03:12:44;;;;;;;5.88;2.80;;;11.40;99.90;;;;;;5073264;28;20045;-66
2022/10/01 03:15:11;;;;;;;5.32;2.20;;;10.70;99.90;;;;;;5055366;28;20124;-66
2022/10/01 03:17:36;;;;;;;3.38;2.25;;;10.70;99.90;;;;;;5073147;28;20045;-67
2022/10/01 03:20:04;;;;;;;2.83;2.05;;;10.70;99.90;;;;;;5073422;28;20465;-66
2022/10/01 03:22:30;;;;;;;3.75;2.63;;;10.80;99.90;;;;;;5073443;28;20044;-66
2022/10/01 03:24:56;;;;;;;2.67;1.85;;;10.80;99.90;;;;;;5073247;28;20442;-66
2022/10/01 03:27:22;;;;;;;3.47;2.25;;;10.80;99.90;;;;;;5055117;28;20055;-67
2022/10/01 03:29:48;;;;;;;2.95;1.90;;;10.80;99.90;;;;;;5055091;28;20051;-66
2022/10/01 03:32:14;;;;;;;2.47;1.75;;;10.80;99.90;;;;;;5073496;28;20040;-66
2022/10/01 03:34:40;;;;;;;4.47;2.50;;;10.80;99.90;;;;;;5072876;28;20047;-66
2022/10/01 03:37:06;;;;;;;3.58;2.35;;;10.80;99.90;;;;;;5038262;28;20053;-66
2022/10/01 03:39:32;;;;;;;3.58;2.03;;;10.80;99.90;;;;;;5072983;28;20033;-65
2022/10/01 03:41:57;;;;;;;3.00;1.90;;;10.80;99.90;;;;;;5072955;28;20044;-66
2022/10/01 03:44:23;;;;;;;2.45;1.63;;;10.80;99.90;;;;;;5038152;28;20040;-65
2022/10/01 03:46:49;;;;;;;3.38;2.10;;;10.80;99.90;;;;;;5038136;28;20051;-65
2022/10/01 03:49:15;;;;;;;2.33;1.58;;;10.80;99.90;;;;;;5054937;28;20429;-66
2022/10/01 03:51:41;;;;;;;2.47;1.45;;;10.90;99.90;;;;;;5072783;28;20135;-65
2022/10/01 03:54:07;;;;;;;2.22;1.58;;;10.90;99.90;;;;;;5054743;28;20483;-66
2022/10/01 03:56:34;;;;;;;4.25;1.77;;;10.80;99.90;;;;;;5072622;28;20076;-66
2022/10/01 03:59:00;;;;;;;1.83;1.30;;;10.80;99.90;;;;;;5072611;28;20438;-65
2022/10/01 04:01:26;;;;;;;2.33;1.60;;;10.90;99.90;;;;;;5071934;28;20036;-66
2022/10/01 04:03:52;;;;;;;1.90;1.45;;;10.80;99.90;;;;;;5072534;28;20565;-66
2022/10/01 04:06:18;;;;;;;2.38;1.25;;;10.90;99.90;;;;;;5072284;28;20040;-66
2022/10/01 04:08:44;;;;;;;1.75;1.02;;;10.80;99.90;;;;;;5054596;28;20093;-66
2022/10/01 04:11:10;;;;;;;1.30;1.10;;;10.90;99.90;;;;;;5072171;28;20045;-66
2022/10/01 04:13:35;;;;;;;1.23;1.10;;;10.90;99.90;;;;;;5054547;28;20496;-66
2022/10/01 04:16:02;;;;;;;1.92;1.02;;;10.90;99.90;;;;;;5071871;28;20067;-66
2022/10/01 04:18:28;;;;;;;2.22;1.20;;;10.90;99.90;;;;;;5054114;28;20053;-66
2022/10/01 04:20:54;;;;;;;1.98;1.20;;;10.90;99.90;;;;;;5072268;28;20048;-66
2022/10/01 04:23:21;;;;;;;1.75;1.20;;;10.90;99.90;;;;;;5054102;28;20040;-65
2022/10/01 04:25:47;;;;;;;2.10;1.15;;;10.90;99.90;;;;;;5072254;28;20037;-65
2022/10/01 04:28:13;;;;;;;1.77;1.23;;;10.90;99.90;;;;;;5072291;28;20139;-66
2022/10/01 04:30:42;;;;;;;2.03;1.58;;;10.90;99.90;;;;;;5072301;28;20067;-65
2022/10/01 04:33:11;;;;;;;1.50;1.08;;;11.60;99.90;;;;;;5072163;28;20123;-65
2022/10/01 04:35:38;;;;;;;2.10;1.30;;;11.00;99.90;;;;;;5054113;28;20504;-65
2022/10/01 04:38:07;;;;;;;3.22;1.25;;;11.00;99.90;;;;;;5072215;28;20045;-65
2022/10/01 04:40:35;;;;;;;1.63;1.23;;;10.90;99.90;;;;;;5054232;28;20522;-65
2022/10/01 04:43:02;;;;;;;2.13;1.40;;;11.20;99.90;;;;;;5072103;28;20041;-65
2022/10/01 04:45:29;;;;;;;1.00;0.80;;;10.90;99.90;;;;;;5072087;28;20395;-66
2022/10/01 04:47:55;;;;;;;1.25;0.70;;;11.00;99.90;;;;;;5071730;28;20040;-66
2022/10/01 04:50:23;;;;;;;3.70;1.33;;;11.00;99.90;;;;;;5071806;28;20135;-66
2022/10/01 04:52:50;;;;;;;2.38;1.20;;;11.00;99.90;;;;;;5053855;28;20480;-65
2022/10/01 04:55:18;;;;;;;1.30;1.15;;;11.00;99.90;;;;;;5071987;28;20025;-65
2022/10/01 04:57:44;;;;;;;1.17;1.00;;;11.10;99.90;;;;;;5071858;28;20154;-66
2022/10/01 05:00:13;;;;;;;1.17;1.00;;;11.00;99.90;;;;;;5053934;28;20124;-65
2022/10/01 05:02:39;;;;;;;1.73;1.08;;;11.00;99.90;;;;;;5053589;28;20098;-66
2022/10/01 05:05:06;;;;;;;1.38;1.17;;;11.00;99.90;;;;;;5071843;28;20041;-66
2022/10/01 05:07:33;;;;;;;1.17;0.90;;;11.10;99.90;;;;;;5071848;28;20101;-66
2022/10/01 05:09:59;;;;;;;1.35;0.93;;;11.10;99.90;;;;;;5053818;28;20048;-66
2022/10/01 05:12:28;;;;;;;1.92;1.00;;;11.40;99.90;;;;;;5056210;28;20048;-66
2022/10/01 05:14:55;;;;;;;0.80;0.80;;;11.10;99.90;;;;;;5057469;28;20048;-65
2022/10/01 05:17:21;;;;;;;2.30;1.10;;;11.10;99.90;;;;;;5075730;28;20131;-66
2022/10/01 05:19:48;;;;;;;1.10;1.00;;;11.10;99.90;;;;;;5075736;28;20060;-66
2022/10/01 05:22:15;;;;;;;1.77;1.05;;;11.10;99.90;;;;;;5075433;28;20111;-65
2022/10/01 05:24:42;;;;;;;1.55;1.10;;;11.20;99.90;;;;;;5057432;28;20047;-65
2022/10/01 05:27:12;;;;;;;1.35;1.08;;;11.20;99.90;;;;;;5075600;28;20048;-65
2022/10/01 05:29:41;;;;;;;1.42;1.00;;;11.20;99.90;;;;;;5057685;28;20047;-66
2022/10/01 05:32:08;;;;;;;1.25;0.90;;;11.20;99.90;;;;;;5075525;28;20083;-65
2022/10/01 05:34:34;;;;;;;1.35;1.02;;;11.20;99.90;;;;;;5057238;28;20066;-66
2022/10/01 05:37:01;;;;;;;1.20;0.95;;;11.20;99.90;;;;;;5057156;28;20072;-65
2022/10/01 05:39:31;;;;;;;1.50;1.08;;;11.30;99.90;;;;;;5075377;28;20455;-66
2022/10/01 05:41:58;;;;;;;3.78;1.60;;;11.30;99.90;;;;;;5057410;28;20032;-66
2022/10/01 05:44:24;;;;;;;1.83;1.30;;;11.30;99.90;;;;;;5075367;28;20040;-66
2022/10/01 05:46:51;;;;;;;1.50;1.10;;;11.30;99.90;;;;;;5075211;28;20048;-66
2022/10/01 05:49:17;;;;;;;1.83;1.38;;;11.40;99.90;;;;;;5075111;28;20046;-66
2022/10/01 05:51:45;;;;;;;2.05;1.48;;;11.80;99.90;;;;;;5075166;28;20123;-66
2022/10/01 05:54:11;;;;;;;5.50;1.40;;;11.60;99.90;;;;;;5056926;28;20070;-66
2022/10/01 05:56:37;;;;;;;2.20;1.42;;;11.40;99.90;;;;;;5056852;28;20101;-66
2022/10/01 05:59:04;;;;;;;1.30;0.98;;;11.40;99.90;;;;;;5056718;28;20415;-66
2022/10/01 06:01:31;;;;;;;2.35;1.38;;;11.40;99.90;;;;;;5074667;28;20044;-67
2022/10/01 06:03:56;;;;;;;1.92;1.27;;;11.50;99.90;;;;;;5074646;28;20032;-66
2022/10/01 06:06:24;;;;;;;1.50;1.33;;;11.50;99.90;;;;;;5056565;28;20203;-66
2022/10/01 06:08:50;;;;;;;2.70;1.52;;;11.60;99.90;;;;;;5074520;28;20059;-65
2022/10/01 06:11:16;;;;;;;1.30;1.13;;;11.50;99.90;;;;;;5056728;28;20048;-65
2022/10/01 06:13:44;;;;;;;2.67;1.63;;;11.50;99.90;;;;;;5074714;28;20498;-65
2022/10/01 06:16:13;;;;;;;1.20;1.10;;;11.50;99.90;;;;;;5074101;28;20056;-66
2022/10/01 06:18:40;;;;;;;1.60;1.40;;;11.60;99.90;;;;;;5074576;28;20071;-65
2022/10/01 06:21:06;;;;;;;2.40;1.60;;;11.70;99.90;;;;;;5056664;28;20407;-66
2022/10/01 06:23:32;;;;;;;1.52;1.40;;;11.70;99.90;;;;;;5055492;28;20040;-65
2022/10/01 06:26:04;;;;;;;2.42;1.63;;;11.80;99.90;;;;;;5074472;28;20041;-66
2022/10/01 06:28:30;;;;;;;2.63;1.30;;;11.80;99.90;;;;;;5074510;28;20622;-65
2022/10/01 06:30:56;;;;;;;4.90;1.63;;;11.80;99.90;;;;;;5074402;28;20047;-67
2022/10/01 06:33:22;;;;;;;2.42;1.65;;;11.80;99.90;;;;;;5074099;28;20551;-65
2022/10/01 06:35:50;;;;;;;2.55;1.70;;;11.80;99.90;;;;;;5073930;28;20036;-66
2022/10/01 06:38:18;;;;;;;3.95;2.08;;;11.90;99.90;;;;;;5074284;28;20090;-66
2022/10/01 06:40:59;;;;;;;3.42;1.80;;;11.90;99.90;;;;;;5074097;28;20036;-66
2022/10/01 06:43:28;;;;;;;3.15;1.40;;;11.90;99.90;;;;;;5056353;28;20133;-67
2022/10/01 06:45:54;;;;;;;2.55;1.75;;;11.90;99.90;;;;;;5074100;28;20056;-66
2022/10/01 06:48:20;;;;;;;2.72;1.95;;;11.90;99.90;;;;;;5056441;28;20041;-65
2022/10/01 06:50:49;;;;;;;4.03;2.10;;;12.00;99.90;;;;;;5074003;28;20105;-67
2022/10/01 06:53:16;;;;;;;2.30;2.03;;;12.00;99.90;;;;;;5073717;28;20559;-68
2022/10/01 06:55:43;;;;;;;2.72;1.77;;;12.10;99.90;;;;;;5073983;28;20471;-65
2022/10/01 06:58:15;;;;;;;4.20;2.30;;;13.90;99.90;;;;;;5073729;28;20036;-65
2022/10/01 07:00:42;;;;;;;2.75;2.00;;;12.30;99.90;;;;;;5073368;28;20032;-66
2022/10/01 07:03:11;;;;;;;2.65;2.10;;;12.30;99.90;;;;;;5055639;28;20036;-65
2022/10/01 07:05:38;;;;;;;2.85;1.83;;;12.40;99.90;;;;;;5073665;28;20052;-66
2022/10/01 07:08:04;;;;;;;2.47;1.88;;;12.30;99.90;;;;;;5073605;28;20068;-64
2022/10/01 07:10:31;;;;;;;3.22;1.63;;;12.30;99.90;;;;;;5073499;28;20043;-66
2022/10/01 07:13:08;;;;;;;2.35;1.80;;;12.40;99.90;;;;;;5055219;28;20059;-68
2022/10/01 07:15:34;;;;;;;2.88;2.55;;;12.40;99.90;;;;;;5072882;28;20056;-66
2022/10/01 07:18:00;;;;;;;2.65;2.08;;;12.50;99.90;;;;;;5073014;28;20045;-65
2022/10/01 07:20:26;;;;;;;2.90;2.03;;;12.50;99.90;;;;;;5073025;28;20071;-66
2022/10/01 07:22:57;;;;;;;2.65;2.28;;;12.50;99.90;;;;;;5072880;28;20087;-67
2022/10/01 07:25:24;;;;;;;3.72;2.03;;;12.50;99.90;;;;;;5055129;28;20514;-66
2022/10/01 07:27:53;;;;;;;3.08;1.85;;;12.60;99.90;;;;;;5072802;28;20455;-66
2022/10/01 07:30:19;;;;;;;2.83;2.00;;;12.60;99.90;;;;;;5073002;28;20479;-66
2022/10/01 07:32:45;;;;;;;2.22;1.92;;;12.50;99.90;;;;;;5073038;28;20040;-66
2022/10/01 07:35:10;;;;;;;2.25;1.60;;;12.50;99.90;;;;;;5054074;28;20040;-66
2022/10/01 07:37:36;;;;;;;5.03;1.83;;;12.50;99.90;;;;;;5054743;28;20052;-66
2022/10/01 07:40:02;;;;;;;2.70;1.95;;;12.50;99.90;;;;;;5072826;28;20043;-66
2022/10/01 07:42:27;;;;;;;2.00;1.80;;;12.60;99.90;;;;;;5037899;28;20044;-68
2022/10/01 07:44:54;;;;;;;2.78;1.52;;;12.60;99.90;;;;;;5072981;28;20029;-66
2022/10/01 07:47:20;;;;;;;4.90;2.30;;;12.70;99.90;;;;;;5055208;28;20415;-66
2022/10/01 07:49:46;;;;;;;4.15;2.50;;;12.60;99.90;;;;;;5072914;28;20043;-66
2022/10/01 07:52:12;;;;;;;2.55;1.90;;;12.60;99.90;;;;;;5072857;28;20124;-66
2022/10/01 07:54:38;;;;;;;3.80;2.28;;;12.60;99.90;;;;;;5054937;28;20087;-66
2022/10/01 07:57:03;;;;;;;1.75;1.63;;;12.60;99.90;;;;;;5072447;28;20043;-66
2022/10/01 07:59:30;;;;;;;3.13;2.25;;;12.60;99.90;;;;;;5072340;28;20043;-66
2022/10/01 08:01:55;;;;;;;2.53;2.00;;;12.70;99.90;;;;;;5037848;28;20036;-65
2022/10/01 08:07:07;;;;;;;3.15;2.20;;;12.80;99.90;;;;;;5054255;28;20056;-66
2022/10/01 08:09:33;;;;;;;4.50;1.73;;;12.90;99.90;;;;;;5054265;28;20125;-66
2022/10/01 08:12:01;;;;;;;3.30;1.98;;;13.00;99.90;;;;;;5037676;28;20044;-67
2022/10/01 08:14:27;;;;;;;2.63;1.90;;;13.00;99.90;;;;;;5054797;28;20055;-66
2022/10/01 08:16:54;;;;;;;3.50;1.65;;;13.10;99.90;;;;;;5071926;28;20088;-66
2022/10/01 08:19:20;;;;;;;3.15;1.92;;;13.20;99.90;;;;;;5054145;28;20032;-66
2022/10/01 08:21:46;;;;;;;3.88;1.95;;;13.30;99.90;;;;;;5054156;28;20041;-67
2022/10/01 08:24:11;;;;;;;3.45;1.50;;;13.40;99.90;;;;;;5054395;28;20047;-66
2022/10/01 08:26:37;;;;;;;3.13;1.52;;;13.50;99.90;;;;;;5072313;28;20052;-66
2022/10/01 08:29:03;;;;;;;3.88;1.70;;;13.50;99.90;;;;;;5072190;28;20044;-65
2022/10/01 08:31:29;;;;;;;2.88;1.70;;;13.60;99.90;;;;;;5072249;28;20048;-66
2022/10/01 08:33:55;;;;;;;3.33;1.58;;;13.70;99.90;;;;;;5071953;28;20058;-66
2022/10/01 08:36:21;;;;;;;5.35;1.40;;;13.70;99.90;;;;;;5072087;28;20068;-66
2022/10/01 08:38:47;;;;;;;5.78;1.85;;;13.80;99.90;;;;;;5053817;28;20045;-66
2022/10/01 08:41:35;;;;;;;1.45;1.23;;;13.90;99.90;;;;;;5072043;28;20091;-66
2022/10/01 08:44:04;;;;;;;2.53;1.40;;;13.90;99.90;;;;;;5071981;28;20089;-66
2022/10/01 08:46:33;;;;;;;2.08;1.25;;;14.00;99.90;;;;;;5071664;28;20032;-69
2022/10/01 08:49:24;;;;;;;5.38;1.27;;;14.10;99.90;;;;;;5053911;28;20036;-66
2022/10/01 08:52:12;;;;;;;2.55;1.33;;;14.20;99.90;;;;;;5053754;28;20087;-66
2022/10/01 08:54:59;;;;;;;1.98;1.08;;;14.30;99.90;;;;;;5053997;28;20052;-66
2022/10/01 08:57:29;;;;;;;2.00;1.23;;;14.30;99.90;;;;;;5053674;28;20055;-66
2022/10/01 08:59:58;;;;;;;2.10;1.40;;;14.30;99.90;;;;;;5071934;28;20364;-65
2022/10/01 09:02:36;;;;;;;5.18;1.30;;;14.40;99.90;;;;;;5071622;28;20051;-66
2022/10/01 09:05:05;;;;;;;4.88;1.42;;;14.40;99.90;;;;;;5053669;28;20124;-66
2022/10/01 09:08:03;;;;;;;3.42;1.25;;;14.50;99.90;;;;;;5053495;28;20044;-66
2022/10/01 09:11:01;;;;;;;3.10;1.17;;;14.50;99.90;;;;;;5071796;28;20044;-66
2022/10/01 09:13:43;;;;;;;1.42;0.85;;;14.50;99.90;;;;;;5051989;28;20212;-66
2022/10/01 09:16:31;;;;;;;2.70;1.17;;;14.60;99.90;;;;;;5053353;28;20088;-66
2022/10/01 09:19:30;;;;;;;4.07;0.90;;;14.70;99.90;;;;;;5071702;28;20047;-66
2022/10/01 09:22:09;;;;;;;1.35;0.80;;;14.80;99.90;;;;;;5071667;28;20094;-66
2022/10/01 09:24:42;;;;;;;3.13;1.13;;;14.80;99.90;;;;;;5071600;28;20040;-66
2022/10/01 09:27:22;;;;;;;1.58;0.68;;;14.90;99.90;;;;;;5071602;28;20044;-67
2022/10/01 09:29:59;;;;;;;3.38;0.77;;;15.00;99.90;;;;;;5053351;28;20044;-66
2022/10/01 09:32:37;;;;;;;2.47;1.02;;;15.10;99.90;;;;;;5071661;28;20091;-65
2022/10/01 09:35:33;;;;;;;1.67;0.75;;;15.20;99.90;;;;;;5071595;28;20484;-66
2022/10/01 09:38:26;;;;;;;0.70;0.70;;;15.40;99.90;;;;;;5071119;28;20045;-67
2022/10/01 09:40:56;;;;;;;3.05;1.25;;;15.50;99.90;;;;;;5061462;28;20049;-67
2022/10/01 09:43:27;;;;;;;1.75;0.80;;;15.70;99.90;;;;;;5071273;28;20080;-66
2022/10/01 09:45:53;;;;;;;3.47;0.95;;;15.80;99.90;;;;;;5071221;28;20032;-67
2022/10/01 09:48:23;;;;;;;4.53;1.33;;;16.00;99.90;;;;;;5071284;28;20561;-67
2022/10/01 09:51:15;;;;;;;5.30;0.87;;;16.10;99.90;;;;;;5071060;28;20079;-67
2022/10/01 09:54:26;;;;;;;2.10;0.75;;;16.10;99.90;;;;;;5053418;28;20475;-66
2022/10/01 09:57:10;;;;;;;3.40;0.77;;;16.10;99.90;;;;;;5049690;28;20534;-67
2022/10/01 09:59:52;;;;;;;2.60;0.77;;;16.20;99.90;;;;;;5073762;28;20075;-65
2022/10/01 10:02:32;;;;;;;0.85;0.45;;;16.10;99.90;;;;;;5074652;28;20048;-65
2022/10/01 10:05:05;;;;;;;3.58;0.98;;;15.90;99.90;;;;;;5074750;28;20098;-65
2022/10/01 10:07:33;;;;;;;2.30;0.85;;;15.90;99.90;;;;;;5074690;28;20080;-64
2022/10/01 10:10:16;;;;;;;3.60;0.40;;;15.90;99.90;;;;;;5056870;28;20114;-66
2022/10/01 10:12:44;;;;;;;3.40;0.77;;;15.90;99.90;;;;;;5074817;28;20036;-66
2022/10/01 10:15:20;;;;;;;4.03;0.95;;;15.80;99.90;;;;;;5074288;28;20052;-66
2022/10/01 10:17:50;;;;;;;2.00;0.52;;;15.70;99.90;;;;;;5074252;28;20097;-66
2022/10/01 10:20:38;;;;;;;2.33;0.73;;;15.70;99.90;;;;;;5074362;28;20068;-67
2022/10/01 10:23:19;;;;;;;3.78;0.98;;;15.70;99.90;;;;;;5074330;28;20067;-64
2022/10/01 10:26:02;;;;;;;2.45;0.40;;;15.60;99.90;;;;;;5056624;28;20036;-63
2022/10/01 10:28:43;;;;;;;0.93;0.32;;;15.40;99.90;;;;;;5074152;28;20046;-65
2022/10/01 10:31:19;;;;;;;1.60;0.50;;;15.10;99.90;;;;;;5074436;28;20040;-66
2022/10/01 10:34:06;;;;;;;0.80;0.30;;;14.90;99.90;;;;;;5074013;28;20115;-63
2022/10/01 10:36:35;;;;;;;3.92;0.65;;;14.50;99.90;;;;;;5073876;28;20063;-65
2022/10/01 10:39:05;;;;;;;1.33;0.45;;;14.30;99.90;;;;;;5055988;28;20072;-66
2022/10/01 10:41:32;;;;;;;2.75;0.60;;;14.20;99.90;;;;;;5056275;28;20052;-66
2022/10/01 10:44:05;;;;;;;6.75;0.40;;;14.10;99.90;;;;;;5056094;28;20063;-65
2022/10/01 10:46:36;;;;;;;2.10;0.70;;;13.90;99.90;;;;;;5055926;28;20076;-63
2022/10/01 10:49:13;;;;;;;1.77;0.60;;;13.80;99.90;;;;;;5039274;28;20098;-63
2022/10/01 10:51:50;;;;;;;1.20;0.40;;;13.80;99.90;;;;;;5074066;28;20226;-64
2022/10/01 10:54:30;;;;;;;0.80;0.50;;;13.70;99.90;;;;;;5073800;28;20041;-65
2022/10/01 10:57:01;;;;;;;5.18;1.00;;;13.60;99.90;;;;;;5073972;28;20110;-66
2022/10/01 10:59:32;;;;;;;14.32;0.88;;;13.50;99.90;;;;;;5055918;28;20120;-65
2022/10/01 11:02:00;;;;;;;2.28;0.90;;;13.50;99.90;;;;;;5073838;28;20047;-64
2022/10/01 11:04:43;;;;;;;8.70;2.88;;;13.50;99.90;;;;;;5073542;28;20040;-64
2022/10/01 11:07:12;;;;;;;28.23;11.10;;;13.40;99.90;;;;;;5073470;28;20052;-65
2022/10/01 11:09:53;;;;;;;10.43;3.72;;;13.40;99.90;;;;;;5073511;28;20480;-65
2022/10/01 11:12:36;;;;;;;3.55;1.63;;;13.40;99.90;;;;;;5055750;28;20082;-66
2022/10/01 11:15:28;;;;;;;39.17;14.98;;;13.40;99.90;;;;;;5073362;28;20139;-65
2022/10/01 11:18:12;;;;;;;6.95;3.13;;;13.50;99.90;;;;;;5055252;28;20128;-65
2022/10/01 11:20:59;;;;;;;3.70;1.58;;;13.60;99.90;;;;;;5073530;28;20535;-66
2022/10/01 11:24:03;;;;;;;34.70;12.55;;;13.60;99.90;;;;;;5073191;28;20036;-66
2022/10/01 11:26:40;;;;;;;15.40;6.70;;;13.60;99.90;;;;;;4991541;28;20506;-66
2022/10/01 11:29:43;;;;;;;11.32;4.63;;;13.70;99.90;;;;;;5044701;28;20053;-66
2022/10/01 11:32:24;;;;;;;4.68;1.73;;;13.80;99.90;;;;;;5072945;28;20053;-66
2022/10/01 11:35:11;;;;;;;14.48;3.42;;;13.90;99.90;;;;;;5073255;28;20044;-67
2022/10/01 11:37:46;;;;;;;5.20;1.50;;;13.90;99.90;;;;;;5055053;28;20537;-66
2022/10/01 11:40:26;;;;;;;7.05;3.72;;;14.00;99.90;;;;;;5072780;28;20127;-66
2022/10/01 11:42:59;;;;;;;2.67;1.50;;;14.10;99.90;;;;;;5055087;28;20044;-66
2022/10/01 11:45:33;;;;;;;4.10;1.50;;;14.10;99.90;;;;;;5054774;28;20040;-66
2022/10/01 11:48:30;;;;;;;0.65;0.55;;;14.20;99.90;;;;;;5038109;28;20048;-66
2022/10/01 11:51:03;;;;;;;6.28;1.00;;;14.20;99.90;;;;;;5016948;28;20095;-67
2022/10/01 11:53:32;;;;;;;2.42;0.63;;;14.30;99.90;;;;;;5072523;28;20079;-67
2022/10/01 11:59:36;;;;;;;4.55;0.93;;;14.50;99.90;;;;;;5072491;28;20041;-67
2022/10/01 12:02:25;;;;;;;4.70;0.65;;;14.60;99.90;;;;;;5050424;28;20147;-66
2022/10/01 12:05:06;;;;;;;0.68;0.55;;;14.70;99.90;;;;;;5072614;28;20115;-67
2022/10/01 12:07:46;;;;;;;1.42;0.63;;;14.70;99.90;;;;;;5072246;28;20036;-66
2022/10/01 12:10:49;;;;;;;4.55;1.10;;;14.80;99.90;;;;;;5054386;28;20163;-66
2022/10/01 12:13:15;;;;;;;4.63;1.15;;;14.80;99.90;;;;;;5072551;28;20052;-66
2022/10/01 12:16:03;;;;;;;5.57;1.02;;;14.90;99.90;;;;;;5054299;28;20416;-65
2022/10/01 12:18:39;;;;;;;5.53;1.00;;;14.90;99.90;;;;;;5072424;28;20151;-67
2022/10/01 12:21:24;;;;;;;2.83;1.58;;;15.00;99.90;;;;;;5071751;28;20041;-66
2022/10/01 12:24:11;;;;;;;0.85;0.60;;;15.00;99.90;;;;;;5072356;28;20052;-66
2022/10/01 12:26:52;;;;;;;3.80;0.90;;;15.00;99.90;;;;;;5054379;28;20052;-66
2022/10/01 12:29:21;;;;;;;3.78;1.10;;;15.00;99.90;;;;;;5072309;28;20036;-67
2022/10/01 12:31:57;;;;;;;3.22;0.73;;;14.90;99.90;;;;;;5071959;28;20072;-67
2022/10/01 12:34:47;;;;;;;2.42;1.00;;;14.80;99.90;;;;;;5072208;28;20047;-67
2022/10/01 12:37:22;;;;;;;6.07;0.90;;;14.70;99.90;;;;;;5072137;28;20123;-67
2022/10/01 12:40:10;;;;;;;2.22;0.77;;;14.60;99.90;;;;;;5054181;28;20044;-68
2022/10/01 12:42:50;;;;;;;4.07;1.10;;;14.50;99.90;;;;;;5071914;28;20094;-67
2022/10/01 12:45:28;;;;;;;2.00;0.90;;;14.50;99.90;;;;;;5054086;28;20110;-67
2022/10/01 12:48:04;;;;;;;1.65;1.08;;;14.50;99.90;;;;;;5071817;28;20067;-65
2022/10/01 12:50:39;;;;;;;6.03;1.02;;;14.50;99.90;;;;;;5072045;28;20044;-66
2022/10/01 12:53:32;;;;;;;2.25;0.68;;;14.60;99.90;;;;;;5071821;28;20120;-66
2022/10/01 12:56:07;;;;;;;3.38;0.65;;;14.60;99.90;;;;;;5071583;28;20094;-69
2022/10/01 12:58:51;;;;;;;1.52;0.82;;;14.70;99.90;;;;;;5053717;28;20098;-66
2022/10/01 13:01:40;;;;;;;5.55;1.30;;;14.80;99.90;;;;;;5053715;28;20052;-65
2022/10/01 13:04:33;;;;;;;1.70;0.50;;;14.80;99.90;;;;;;5020604;28;20045;-66
2022/10/01 13:07:35;;;;;;;2.30;0.50;;;15.00;99.90;;;;;;5071835;28;20040;-67
2022/10/01 13:10:16;;;;;;;2.58;0.73;;;15.20;99.90;;;;;;5053587;28;20098;-67
2022/10/01 13:13:13;;;;;;;1.90;0.45;;;15.10;99.90;;;;;;5071748;28;20123;-67
2022/10/01 13:15:43;;;;;;;1.48;0.75;;;15.10;99.90;;;;;;5071313;28;20052;-68
2022/10/01 13:18:14;;;;;;;3.40;0.50;;;15.00;99.90;;;;;;5071449;28;20443;-67